Time;durP1;ratioP1;P1;durP2;ratioP2;P2;SDS_P1;SDS_P2;PMS_P1;PMS_P2;Temp;Humidity;BMP_temperature;BMP_pressure;BME280_temperature;BME280_humidity;BME280_pressure;Samples;Min_cycle;Max_cycle;Signal;HPM_P1;HPM_P2
2022/04/25 00:00:16;;;;;;;15.43;4.58;;;;;;;3.86;86.52;98885.16;1669467;84;20938;-61
2022/04/25 00:02:44;;;;;;;9.25;3.55;;;;;;;3.88;86.54;98881.26;1663806;84;21022;-61
2022/04/25 00:05:11;;;;;;;11.77;3.57;;;;;;;3.88;86.58;98879.97;1671014;84;21017;-62
2022/04/25 00:07:37;;;;;;;10.93;3.98;;;;;;;3.91;86.40;98878.11;1670468;84;21067;-61
2022/04/25 00:10:06;;;;;;;13.62;3.98;;;;;;;3.92;86.23;98882.41;1671829;84;21554;-61
2022/04/25 00:12:33;;;;;;;10.72;4.08;;;;;;;3.94;86.24;98874.13;1673977;84;21012;-62
2022/04/25 00:14:59;;;;;;;10.70;4.10;;;;;;;3.96;86.38;98878.81;1669536;84;21645;-62
2022/04/25 00:17:26;;;;;;;10.13;4.20;;;;;;;3.97;86.27;98879.64;1669193;84;21233;-61
2022/04/25 00:19:53;;;;;;;12.50;4.07;;;;;;;3.96;86.52;98873.64;1669574;84;21259;-62
2022/04/25 00:22:19;;;;;;;12.73;4.12;;;;;;;3.98;86.45;98866.70;1669799;84;21535;-62
2022/04/25 00:24:48;;;;;;;6.70;3.95;;;;;;;3.93;87.27;98867.75;1668024;84;21058;-61
2022/04/25 00:27:15;;;;;;;8.23;3.65;;;;;;;3.89;86.63;98871.31;1668874;84;21576;-61
2022/04/25 00:29:41;;;;;;;8.55;3.90;;;;;;;3.90;86.91;98863.98;1669156;84;21021;-61
2022/04/25 00:32:08;;;;;;;7.73;3.37;;;;;;;3.89;86.61;98866.98;1667318;84;21689;-61
2022/04/25 00:34:36;;;;;;;5.03;3.52;;;;;;;3.93;86.69;98865.16;1669348;84;21049;-61
2022/04/25 00:37:03;;;;;;;;;;;;;;;3.90;87.03;98863.98;1673925;84;21045;-61
2022/04/25 00:39:29;;;;;;;13.93;4.62;;;;;;;3.88;86.96;98856.72;1672050;84;20500;-61
2022/04/25 00:41:58;;;;;;;9.93;3.33;;;;;;;3.85;86.67;98851.66;1673132;84;20948;-62
2022/04/25 00:44:25;;;;;;;11.70;4.45;;;;;;;3.88;86.69;98854.14;1639924;86;21131;-62
2022/04/25 00:46:55;;;;;;;7.62;3.95;;;;;;;3.87;86.77;98855.05;1664138;85;20921;-61
2022/04/25 00:49:23;;;;;;;11.75;3.40;;;;;;;3.84;86.76;98849.95;1666373;85;20963;-61
2022/04/25 00:51:51;;;;;;;8.20;3.90;;;;;;;3.86;86.70;98851.59;1665922;85;21106;-61
2022/04/25 00:54:21;;;;;;;10.58;3.92;;;;;;;3.87;87.12;98848.59;1668160;85;21054;-61
2022/04/25 00:56:49;;;;;;;9.25;4.20;;;;;;;3.81;87.44;98844.02;1666157;85;21448;-61
2022/04/25 00:59:21;;;;;;;9.10;4.15;;;;;;;3.79;87.42;98843.22;1663004;85;21047;-62
2022/04/25 01:01:51;;;;;;;8.90;3.67;;;;;;;3.79;87.09;98840.64;1660948;84;21072;-61
2022/04/25 01:04:17;;;;;;;10.50;4.17;;;;;;;3.79;87.26;98836.77;1676533;84;21066;-61
2022/04/25 01:06:43;;;;;;;10.80;3.65;;;;;;;3.80;86.88;98838.44;1667811;85;21097;-61
2022/04/25 01:09:10;;;;;;;14.00;4.55;;;;;;;3.84;86.99;98831.88;1664225;85;21113;-61
2022/04/25 01:11:37;;;;;;;9.65;3.98;;;;;;;3.83;86.92;98848.28;1645074;86;20997;-62
2022/04/25 01:14:16;;;;;;;11.50;4.60;;;;;;;3.79;87.28;98841.09;1675278;85;21074;-61
2022/04/25 01:16:44;;;;;;;9.48;4.50;;;;;;;3.80;87.10;98838.44;1668711;84;21044;-62
2022/04/25 01:19:11;;;;;;;10.20;3.92;;;;;;;3.73;88.00;98843.44;1667231;85;21677;-62
2022/04/25 01:29:44;;;;;;;9.33;3.77;;;;;;;3.73;87.80;98827.95;1811827;78;21182;-61
2022/04/25 01:32:11;;;;;;;6.85;3.85;;;;;;;3.69;87.70;98826.34;1810508;78;21047;-61
2022/04/25 01:34:38;;;;;;;7.37;3.75;;;;;;;3.70;87.47;98815.14;1744464;80;21525;-61
2022/04/25 01:37:11;;;;;;;10.05;4.45;;;;;;;3.72;87.39;98818.49;1768904;80;21053;-61
2022/04/25 01:39:42;;;;;;;11.40;3.67;;;;;;;3.76;87.33;98823.97;1766242;80;21576;-60
2022/04/25 01:42:09;;;;;;;9.53;3.50;;;;;;;3.76;87.88;98822.67;1762300;80;21155;-61
2022/04/25 01:44:37;;;;;;;11.88;4.05;;;;;;;3.76;87.44;98825.25;1763008;79;20985;-61
2022/04/25 01:47:05;;;;;;;8.20;4.15;;;;;;;3.74;87.70;98818.45;1763009;80;21007;-62
2022/04/25 01:49:34;;;;;;;10.23;3.67;;;;;;;3.74;87.77;98812.84;1768893;80;20982;-61
2022/04/25 01:52:17;;;;;;;9.95;3.95;;;;;;;3.75;87.81;98818.42;1754751;81;21471;-61
2022/04/25 01:54:44;;;;;;;7.00;3.75;;;;;;;3.76;87.55;98814.09;1757226;80;21282;-62
2022/04/25 01:57:56;;;;;;;9.68;3.80;;;;;;;3.85;87.84;98810.34;1860085;76;21772;-60
2022/04/25 02:00:23;;;;;;;10.67;4.30;;;;;;;3.79;87.62;98812.23;1831571;77;20895;-60
2022/04/25 02:02:50;;;;;;;9.75;3.87;;;;;;;3.76;88.36;98813.64;1829142;77;21402;-61
2022/04/25 02:05:16;;;;;;;11.90;3.97;;;;;;;3.73;88.07;98812.45;1832280;76;20942;-60
2022/04/25 02:07:43;;;;;;;9.73;3.65;;;;;;;3.76;87.93;98809.77;1832189;76;21725;-60
2022/04/25 02:10:14;;;;;;;10.50;4.67;;;;;;;3.73;88.10;98809.88;1832094;77;21021;-61
2022/04/25 02:12:44;;;;;;;8.25;3.95;;;;;;;3.72;88.43;98810.75;1831320;76;20994;-60
2022/04/25 02:15:13;;;;;;;9.30;4.37;;;;;;;3.73;88.14;98811.16;1834747;75;22251;-62
2022/04/25 02:17:45;;;;;;;13.10;4.17;;;;;;;3.75;88.02;98815.83;1828826;77;20896;-61
2022/04/25 02:20:11;;;;;;;8.50;3.77;;;;;;;3.80;87.81;98809.20;1826062;75;21018;-61
2022/04/25 02:22:38;;;;;;;13.45;3.95;;;;;;;3.85;87.82;98805.19;1826578;75;20963;-61
2022/04/25 02:25:07;;;;;;;7.80;3.60;;;;;;;3.86;87.62;98810.28;1827346;75;21098;-61
2022/04/25 02:27:34;;;;;;;8.50;4.12;;;;;;;3.88;88.31;98805.08;1828771;77;21960;-61
2022/04/25 02:30:00;;;;;;;9.38;3.70;;;;;;;3.87;87.73;98803.40;1836420;77;20931;-61
2022/04/25 02:32:28;;;;;;;11.03;4.58;;;;;;;3.85;87.91;98803.44;1831321;77;21575;-61
2022/04/25 02:34:55;;;;;;;11.43;4.08;;;;;;;3.82;88.44;98807.42;1832355;76;20935;-61
2022/04/25 02:37:22;;;;;;;8.23;3.98;;;;;;;3.80;88.10;98803.59;1829199;77;20958;-61
2022/04/25 02:39:51;;;;;;;13.62;4.17;;;;;;;3.81;88.23;98797.55;1835562;75;22278;-61
2022/04/25 02:42:18;;;;;;;11.45;4.05;;;;;;;3.80;88.16;98795.84;1834243;77;21059;-61
2022/04/25 02:44:45;;;;;;;9.00;4.47;;;;;;;3.80;88.82;98800.16;1829477;77;21216;-61
2022/04/25 02:47:11;;;;;;;14.83;4.03;;;;;;;3.76;88.68;98791.69;1835050;77;20941;-61
2022/04/25 02:49:38;;;;;;;13.00;4.37;;;;;;;3.77;88.61;98794.66;1829200;77;20933;-61
2022/04/25 02:52:06;;;;;;;11.73;4.50;;;;;;;3.75;88.39;98787.44;1835680;77;21128;-61
2022/04/25 02:54:33;;;;;;;10.28;4.12;;;;;;;3.78;88.43;98788.62;1832076;77;20930;-61
2022/04/25 02:57:00;;;;;;;13.72;4.40;;;;;;;3.81;88.22;98788.51;1827166;76;21025;-61
2022/04/25 02:59:27;;;;;;;12.78;4.47;;;;;;;3.85;88.26;98790.98;1819840;77;20969;-60
2022/04/25 03:01:54;;;;;;;8.45;3.75;;;;;;;3.84;88.34;98790.56;1812299;77;21079;-61
2022/04/25 03:04:21;;;;;;;10.63;4.75;;;;;;;3.81;88.56;98789.80;1824790;77;21650;-61
2022/04/25 03:06:48;;;;;;;10.97;4.80;;;;;;;3.79;88.60;98789.00;1819140;77;22363;-61
2022/04/25 03:09:14;;;;;;;8.55;3.62;;;;;;;3.81;88.42;98789.80;1821283;77;21046;-61
2022/04/25 03:11:44;;;;;;;15.53;4.42;;;;;;;3.84;88.64;98780.23;1825160;76;21020;-61
2022/04/25 03:14:10;;;;;;;10.10;4.47;;;;;;;3.83;88.67;98785.86;1827516;77;20944;-61
2022/04/25 03:16:37;;;;;;;10.88;4.50;;;;;;;3.79;88.81;98786.41;1824844;77;21113;-62
2022/04/25 03:19:04;;;;;;;19.27;5.93;;;;;;;3.83;88.61;98791.47;1825819;77;21058;-62
2022/04/25 03:21:32;;;;;;;11.20;4.00;;;;;;;3.86;88.41;98786.20;1820341;77;21475;-60
2022/04/25 03:23:59;;;;;;;13.90;4.97;;;;;;;3.88;88.42;98784.41;1823931;76;20985;-61
2022/04/25 03:26:25;;;;;;;10.93;4.97;;;;;;;3.90;88.82;98785.21;1831312;77;20998;-61
2022/04/25 03:28:52;;;;;;;8.83;4.40;;;;;;;3.83;88.81;98791.47;1818932;77;22086;-61
2022/04/25 03:31:19;;;;;;;12.87;4.57;;;;;;;3.78;88.90;98797.66;1829808;77;21041;-60
2022/04/25 03:33:45;;;;;;;12.78;4.30;;;;;;;3.79;89.05;98787.71;1832121;77;20942;-61
2022/04/25 03:36:12;;;;;;;9.70;4.40;;;;;;;3.79;89.54;98789.00;1780067;80;21060;-61
2022/04/25 03:38:42;;;;;;;9.60;4.75;;;;;;;3.76;89.49;98787.81;1743703;80;20953;-61
2022/04/25 03:41:07;;;;;;;13.90;5.53;;;;;;;3.75;89.61;98783.98;1763644;79;21169;-61
2022/04/25 03:43:34;;;;;;;17.67;4.80;;;;;;;3.72;89.69;98788.80;1764461;79;20982;-61
2022/04/25 03:46:01;;;;;;;10.48;4.72;;;;;;;3.78;89.60;98788.62;1762854;79;21193;-61
2022/04/25 03:48:28;;;;;;;15.72;5.03;;;;;;;3.85;89.40;98792.27;1763444;80;21005;-62
2022/04/25 03:50:55;;;;;;;14.80;6.47;;;;;;;3.87;89.14;98793.06;1768742;79;21021;-61
2022/04/25 03:53:23;;;;;;;16.48;5.20;;;;;;;3.84;89.50;98787.98;1767571;79;21564;-61
2022/04/25 03:58:35;;;;;;;14.33;5.20;;;;;;;3.86;89.46;98796.53;1798222;78;21018;-60
2022/04/25 04:01:02;;;;;;;8.88;4.90;;;;;;;3.86;89.29;98796.53;1804391;77;21028;-60
2022/04/25 04:03:30;;;;;;;;;;;;;;;3.87;89.43;98801.66;1786645;78;21117;-60
2022/04/25 04:05:57;;;;;;;7.42;4.42;;;;;;;3.87;89.84;98804.23;1778735;78;21629;-60
2022/04/25 04:08:23;;;;;;;10.43;5.33;;;;;;;3.87;89.69;98803.40;1785793;79;21516;-60
2022/04/25 04:10:50;;;;;;;9.03;4.50;;;;;;;3.85;89.79;98802.59;1794775;78;21027;-60
2022/04/25 04:13:17;;;;;;;10.93;5.37;;;;;;;3.86;90.20;98801.69;1803397;78;20923;-61
2022/04/25 04:15:43;;;;;;;9.73;4.90;;;;;;;3.84;89.77;98803.48;1807387;77;21060;-61
2022/04/25 04:18:10;;;;;;;12.70;4.72;;;;;;;3.85;89.74;98806.47;1784053;78;21564;-61
2022/04/25 04:20:38;;;;;;;11.60;5.70;;;;;;;3.87;89.83;98817.60;1813445;77;21508;-61
2022/04/25 04:23:05;;;;;;;17.45;5.80;;;;;;;3.87;89.92;98814.56;1816348;77;21018;-61
2022/04/25 04:25:32;;;;;;;;;;;;;;;3.86;90.07;98809.44;1782131;78;21103;-61
2022/04/25 04:27:59;;;;;;;11.78;5.45;;;;;;;3.89;90.24;98815.78;1778869;78;20157;-61
2022/04/25 04:30:26;;;;;;;13.57;5.27;;;;;;;3.87;90.20;98809.86;1788460;78;21073;-61
2022/04/25 04:32:53;;;;;;;7.60;4.45;;;;;;;3.90;89.80;98814.91;1812946;77;20985;-61
2022/04/25 04:38:07;;;;;;;;;;;;;;;3.88;90.10;98814.11;1662635;84;21038;-61
2022/04/25 04:40:35;;;;;;;12.80;4.85;;;;;;;3.89;90.40;98811.91;1683935;82;20484;-61
2022/04/25 04:43:03;;;;;;;14.13;4.95;;;;;;;3.89;90.56;98811.91;1689705;82;21109;-62
2022/04/25 04:45:30;;;;;;;9.85;4.78;;;;;;;3.90;90.76;98809.75;1689242;82;21628;-62
2022/04/25 04:47:57;;;;;;;8.35;4.03;;;;;;;3.93;90.34;98816.09;1694288;82;21018;-61
2022/04/25 04:50:25;;;;;;;18.75;5.22;;;;;;;3.97;90.79;98818.50;1671946;84;21232;-61
2022/04/25 04:52:58;;;;;;;18.12;5.97;;;;;;;3.98;90.23;98816.78;1694745;82;21146;-61
2022/04/25 04:55:26;;;;;;;9.78;5.12;;;;;;;4.02;90.19;98821.77;1689295;82;21859;-61
2022/04/25 04:57:55;;;;;;;11.33;5.20;;;;;;;4.04;90.00;98820.44;1685795;82;21021;-62
2022/04/25 05:00:23;;;;;;;13.43;5.30;;;;;;;4.09;89.98;98818.96;1668479;84;21124;-62
2022/04/25 05:02:50;;;;;;;10.95;5.40;;;;;;;4.06;90.93;98819.91;1678669;82;21025;-63
2022/04/25 05:05:17;;;;;;;8.50;3.98;;;;;;;4.05;90.65;98824.70;1679685;83;21100;-62
2022/04/25 05:07:48;;;;;;;13.90;5.33;;;;;;;4.08;90.41;98823.30;1685316;84;21572;-62
2022/04/25 05:10:15;;;;;;;12.73;4.85;;;;;;;4.12;90.12;98827.47;1774696;79;21055;-62
2022/04/25 05:12:49;;;;;;;12.40;5.00;;;;;;;4.16;90.43;98823.86;1791153;79;21003;-62
2022/04/25 05:15:16;;;;;;;10.30;5.20;;;;;;;4.21;90.04;98831.47;1789017;79;21537;-60
2022/04/25 05:17:44;;;;;;;9.88;5.12;;;;;;;4.28;89.94;98825.62;1808214;78;20985;-60
2022/04/25 05:20:14;;;;;;;15.72;7.03;;;;;;;4.32;89.81;98831.09;1777021;78;21711;-62
2022/04/25 05:22:44;;;;;;;15.83;5.62;;;;;;;4.32;89.92;98829.80;1786311;78;21645;-62
2022/04/25 05:25:17;;;;;;;16.82;9.30;;;;;;;4.31;89.69;98832.80;1789400;78;20903;-61
2022/04/25 05:27:47;;;;;;;14.68;5.72;;;;;;;4.37;89.62;98826.56;1817309;77;20965;-62
2022/04/25 05:30:19;;;;;;;13.20;5.75;;;;;;;4.39;89.61;98837.70;1809573;77;21147;-62
2022/04/25 05:32:52;;;;;;;15.75;5.95;;;;;;;4.41;89.55;98838.50;1780051;79;22595;-62
2022/04/25 05:35:23;;;;;;;13.55;4.55;;;;;;;4.41;89.81;98839.34;1813072;78;22349;-62
2022/04/25 05:37:50;;;;;;;17.75;5.78;;;;;;;4.41;89.59;98842.37;1796951;79;21068;-63
2022/04/25 05:40:19;;;;;;;15.23;5.10;;;;;;;4.39;89.94;98835.12;1823898;78;20973;-62
2022/04/25 05:42:48;;;;;;;12.40;5.22;;;;;;;4.36;90.31;98841.69;1776488;80;20993;-62
2022/04/25 05:45:18;;;;;;;15.68;6.55;;;;;;;4.38;90.27;98841.20;1779950;78;21272;-62
2022/04/25 05:47:50;;;;;;;10.35;5.47;;;;;;;4.41;89.93;98842.37;1787816;79;21031;-62
2022/04/25 05:53:06;;;;;;;8.73;5.08;;;;;;;4.45;89.76;98845.23;1782885;78;20943;-61
2022/04/25 05:55:33;;;;;;;12.68;5.75;;;;;;;4.47;89.84;98862.38;1790685;78;21040;-62
2022/04/25 05:58:02;;;;;;;;;;;;;;;4.46;90.02;98854.69;1771107;79;21125;-63
2022/04/25 06:00:31;;;;;;;16.42;5.35;;;;;;;4.41;89.99;98848.84;1767118;80;20246;-61
2022/04/25 06:02:59;;;;;;;8.45;5.00;;;;;;;4.42;90.16;98853.09;1761577;80;21290;-62
2022/04/25 06:05:25;;;;;;;19.27;5.03;;;;;;;4.42;89.96;98847.92;1763360;80;21009;-63
2022/04/25 06:07:53;;;;;;;14.68;5.17;;;;;;;4.45;89.91;98848.69;1764802;80;20962;-64
2022/04/25 06:10:22;;;;;;;15.93;5.33;;;;;;;4.54;90.00;98852.67;1764386;79;21147;-61
2022/04/25 06:12:52;;;;;;;14.33;5.15;;;;;;;4.54;89.86;98852.67;1771199;79;21038;-61
2022/04/25 06:15:24;;;;;;;10.05;4.80;;;;;;;4.56;89.78;98850.84;1760292;80;21057;-61
2022/04/25 06:17:54;;;;;;;9.48;5.10;;;;;;;4.61;89.80;98856.70;1763737;80;21354;-62
2022/04/25 06:20:24;;;;;;;12.82;5.33;;;;;;;4.60;89.88;98855.02;1769638;80;20997;-62
2022/04/25 06:22:55;;;;;;;12.88;5.22;;;;;;;4.60;90.16;98856.77;1720151;80;21124;-62
2022/04/25 06:25:23;;;;;;;16.80;5.33;;;;;;;4.59;90.27;98863.66;1755511;80;21036;-62
2022/04/25 06:27:50;;;;;;;12.03;4.70;;;;;;;4.58;90.09;98859.41;1761006;80;21524;-63
2022/04/25 06:30:17;;;;;;;11.18;5.15;;;;;;;4.64;90.17;98859.17;1788512;78;21018;-64
2022/04/25 06:32:45;;;;;;;19.98;6.17;;;;;;;4.74;90.12;98861.44;1763879;80;21555;-63
2022/04/25 06:35:12;;;;;;;12.47;5.37;;;;;;;4.82;90.42;98856.83;1752430;81;21099;-63
2022/04/25 06:37:39;;;;;;;;;;;;;;;4.88;90.16;98848.83;1783093;79;21047;-63
2022/04/25 06:40:08;;;;;;;12.15;5.37;;;;;;;4.90;90.42;98852.17;1778640;79;20548;-66
2022/04/25 06:42:35;;;;;;;10.70;4.87;;;;;;;4.88;90.06;98852.70;1785771;79;21763;-62
2022/04/25 06:45:05;;;;;;;11.78;4.90;;;;;;;4.94;90.08;98854.59;1770405;80;21056;-63
2022/04/25 06:47:32;;;;;;;9.43;4.67;;;;;;;5.02;90.16;98847.84;1781922;79;22396;-62
2022/04/25 06:49:58;;;;;;;8.00;4.78;;;;;;;5.07;89.87;98860.16;1784852;79;20921;-61
2022/04/25 06:52:25;;;;;;;9.15;4.55;;;;;;;5.11;89.85;98855.24;1781582;78;21028;-61
2022/04/25 06:54:53;;;;;;;9.60;4.97;;;;;;;5.18;90.03;98858.88;1785364;79;21529;-62
2022/04/25 06:57:20;;;;;;;7.45;4.75;;;;;;;5.23;89.85;98856.96;1781590;78;21043;-62
2022/04/25 06:59:47;;;;;;;7.60;4.60;;;;;;;5.27;89.89;98856.79;1777654;79;21126;-62
2022/04/25 07:02:15;;;;;;;11.20;5.00;;;;;;;5.29;89.74;98851.53;1758825;80;21187;-62
2022/04/25 07:04:43;;;;;;;8.60;4.60;;;;;;;5.29;89.91;98856.28;1778747;78;21010;-61
2022/04/25 07:07:10;;;;;;;7.65;4.22;;;;;;;5.34;89.85;98852.20;1778484;78;21017;-62
2022/04/25 07:09:36;;;;;;;7.20;3.83;;;;;;;5.29;90.12;98856.71;1797118;78;21001;-62
2022/04/25 07:12:04;;;;;;;9.10;4.45;;;;;;;5.22;89.67;98860.46;1775853;78;21479;-61
2022/04/25 07:14:33;;;;;;;6.80;4.03;;;;;;;5.23;89.88;98858.25;1796646;78;21029;-61
2022/04/25 07:17:03;;;;;;;8.63;3.83;;;;;;;5.16;89.81;98859.80;1799819;78;21023;-62
2022/04/25 07:19:28;;;;;;;6.62;4.03;;;;;;;5.08;89.93;98859.70;1803933;78;21192;-62
2022/04/25 07:30:14;;;;;;;8.00;4.28;;;;;;;5.02;90.19;98859.48;1796170;79;21057;-61
2022/04/25 07:32:50;;;;;;;6.55;3.55;;;;;;;5.03;90.13;98857.28;1794281;77;20954;-61
2022/04/25 07:35:19;;;;;;;8.45;4.40;;;;;;;5.03;90.52;98863.75;1791571;79;22097;-61
2022/04/25 07:37:46;;;;;;;7.78;4.00;;;;;;;4.96;90.21;98859.73;1790260;79;22187;-62
2022/04/25 07:40:15;;;;;;;7.40;4.10;;;;;;;4.94;90.11;98864.11;1789156;78;20986;-61
2022/04/25 07:42:42;;;;;;;7.12;3.50;;;;;;;4.89;90.58;98866.02;1793539;78;21492;-61
2022/04/25 07:45:10;;;;;;;5.08;3.80;;;;;;;4.81;90.76;98875.81;1793341;78;20981;-62
2022/04/25 07:47:42;;;;;;;6.75;4.25;;;;;;;4.74;90.95;98875.66;1790197;79;21577;-62
2022/04/25 07:50:07;;;;;;;7.25;3.70;;;;;;;4.68;91.73;98873.69;1793993;79;21467;-61
2022/04/25 07:52:34;;;;;;;10.63;4.28;;;;;;;4.65;90.95;98871.22;1792348;79;20934;-61
2022/04/25 07:55:02;;;;;;;8.35;4.15;;;;;;;4.66;90.98;98869.02;1794544;79;22303;-61
2022/04/25 07:57:30;;;;;;;8.70;4.40;;;;;;;4.65;91.35;98869.92;1789362;79;21013;-62
2022/04/25 07:59:57;;;;;;;7.10;4.25;;;;;;;4.67;91.08;98871.98;1775043;80;20931;-61
2022/04/25 08:02:25;;;;;;;6.22;4.22;;;;;;;4.77;90.97;98879.42;1777003;79;21090;-62
2022/04/25 08:04:52;;;;;;;8.25;4.83;;;;;;;4.79;90.82;98879.77;1777084;79;20936;-63
2022/04/25 08:07:25;;;;;;;8.48;4.97;;;;;;;4.79;91.38;98877.60;1775597;79;20946;-61
2022/04/25 08:09:52;;;;;;;7.47;4.60;;;;;;;4.76;90.92;98877.30;1766646;79;20950;-61
2022/04/25 08:17:59;;;;;;;8.55;4.70;;;;;;;4.76;91.19;98885.48;1769112;80;21016;-62
2022/04/25 08:20:28;;;;;;;7.28;4.72;;;;;;;4.70;91.05;98882.24;1769937;79;21104;-62
2022/04/25 08:22:57;;;;;;;7.00;4.95;;;;;;;4.71;91.46;98880.49;1767774;79;21063;-63
2022/04/25 08:25:25;;;;;;;8.40;5.15;;;;;;;4.70;91.41;98884.83;1768332;79;20960;-61
2022/04/25 08:27:52;;;;;;;8.93;4.92;;;;;;;4.80;91.34;98889.66;1766272;79;22659;-62
2022/04/25 08:30:20;;;;;;;9.35;4.67;;;;;;;4.84;91.35;98887.33;1766669;79;20967;-60
2022/04/25 08:32:47;;;;;;;10.25;6.37;;;;;;;4.85;91.73;98892.92;1766901;80;20931;-61
2022/04/25 08:35:15;;;;;;;7.45;4.65;;;;;;;4.80;92.22;98894.83;1768500;80;20972;-60
2022/04/25 08:37:42;;;;;;;8.98;4.70;;;;;;;4.86;91.76;98902.35;1767873;79;21018;-61
2022/04/25 08:40:11;;;;;;;8.63;5.08;;;;;;;4.90;91.75;98902.19;1775369;79;21400;-61
2022/04/25 08:42:38;;;;;;;41.10;27.00;;;;;;;4.92;91.53;98902.12;1738658;81;21000;-61
2022/04/25 08:45:10;;;;;;;36.38;20.97;;;;;;;4.96;92.06;98901.13;1767850;80;21009;-61
2022/04/25 08:47:49;;;;;;;16.23;9.35;;;;;;;4.96;91.91;98908.88;1782505;79;21094;-61
2022/04/25 08:51:39;;;;;;;15.67;8.80;;;;;;;5.04;91.74;98893.05;1813989;76;27862;-61
2022/04/25 08:54:29;;;;;;;10.18;6.30;;;;;;;5.12;91.35;98900.91;1803807;78;28013;-61
2022/04/25 08:56:58;;;;;;;10.15;5.90;;;;;;;5.29;91.07;98907.19;1680402;83;21584;-61
2022/04/25 08:59:27;;;;;;;11.48;5.70;;;;;;;5.28;91.18;98912.81;1672182;83;21034;-61
2022/04/25 09:01:54;;;;;;;12.33;5.78;;;;;;;5.23;91.07;98914.73;1701510;84;21565;-61
2022/04/25 09:04:21;;;;;;;10.70;6.40;;;;;;;5.21;91.33;98914.40;1729057;80;20955;-61
2022/04/25 09:06:55;;;;;;;9.60;6.15;;;;;;;5.23;91.30;98917.78;1714434;81;20986;-62
2022/04/25 09:09:22;;;;;;;21.68;9.93;;;;;;;5.23;91.29;98912.15;1725534;82;21093;-61
2022/04/25 09:14:37;;;;;;;11.68;7.12;;;;;;;5.31;91.38;98929.98;1718075;81;21144;-61
2022/04/25 09:17:05;;;;;;;11.43;6.17;;;;;;;5.21;91.21;98933.81;1718303;82;21093;-61
2022/04/25 09:19:34;;;;;;;9.78;7.22;;;;;;;5.15;91.39;98929.71;1715600;81;20995;-61
2022/04/25 09:22:26;;;;;;;11.50;7.17;;;;;;;5.13;91.50;98929.78;1724498;81;21083;-61
2022/04/25 09:24:54;;;;;;;8.65;6.55;;;;;;;5.12;91.73;98930.66;1701292;82;21602;-61
2022/04/25 09:27:23;;;;;;;9.83;7.22;;;;;;;5.09;92.04;98925.61;1697818;82;21049;-60
2022/04/25 09:29:50;;;;;;;15.32;8.08;;;;;;;5.07;92.61;98920.97;1707130;82;21367;-62
2022/04/25 09:32:18;;;;;;;11.55;7.65;;;;;;;5.05;92.42;98933.56;1702041;82;21054;-61
2022/04/25 09:35:03;;;;;;;12.90;6.40;;;;;;;5.06;92.55;98930.90;1696673;82;21283;-61
2022/04/25 09:37:43;;;;;;;12.73;6.87;;;;;;;5.06;92.49;98930.90;1697677;82;20976;-62
2022/04/25 09:40:16;;;;;;;10.88;7.37;;;;;;;5.10;92.67;98931.20;1703941;82;21060;-61
2022/04/25 09:42:43;;;;;;;15.65;7.83;;;;;;;5.10;92.45;98936.83;1710594;82;21743;-61
2022/04/25 09:47:34;;;;;;;12.50;8.03;;;;;;;5.12;92.46;98932.41;1858117;75;22691;-61
2022/04/25 09:50:05;;;;;;;11.40;7.85;;;;;;;5.09;92.64;98933.37;1815202;77;21031;-62
2022/04/25 09:52:58;;;;;;;15.68;8.10;;;;;;;5.03;93.22;98933.61;1816549;78;21049;-62
2022/04/25 09:55:28;;;;;;;9.48;7.25;;;;;;;5.04;93.44;98942.20;1822823;77;21851;-64
2022/04/25 09:57:55;;;;;;;17.82;7.92;;;;;;;5.04;93.15;98944.80;1815538;78;20946;-62
2022/04/25 10:00:39;;;;;;;10.05;6.78;;;;;;;5.10;93.17;98949.77;1820393;78;21076;-62
2022/04/25 10:03:08;;;;;;;10.80;7.12;;;;;;;5.16;92.87;98952.95;1812428;78;21584;-62
2022/04/25 10:05:49;;;;;;;13.28;7.87;;;;;;;5.25;92.75;98950.92;1816374;77;21185;-62
2022/04/25 10:08:19;;;;;;;9.43;6.25;;;;;;;5.23;92.50;98947.55;1817830;77;21506;-61
2022/04/25 10:10:53;;;;;;;11.97;7.10;;;;;;;5.19;92.39;98943.40;1822186;77;20915;-63
2022/04/25 10:13:24;;;;;;;13.80;7.60;;;;;;;5.06;93.01;98946.42;1821721;77;21002;-63
2022/04/25 10:15:51;;;;;;;11.40;7.05;;;;;;;5.07;92.68;98948.13;1818120;77;21002;-63
2022/04/25 10:18:18;;;;;;;13.20;7.12;;;;;;;5.11;92.59;98947.10;1820949;77;20990;-61
2022/04/25 10:20:46;;;;;;;11.70;7.15;;;;;;;5.15;92.59;98959.05;1818623;77;21617;-62
2022/04/25 10:23:18;;;;;;;11.00;7.15;;;;;;;5.11;92.93;98966.52;1795896;78;25659;-63
2022/04/25 10:25:57;;;;;;;10.48;6.92;;;;;;;5.13;92.57;98960.84;1719007;81;21585;-62
2022/04/25 10:29:00;;;;;;;15.00;6.25;;;;;;;5.07;93.14;98965.37;1730656;81;21725;-63
2022/04/25 10:31:41;;;;;;;9.43;6.30;;;;;;;5.07;92.75;98963.66;1701107;82;21333;-61
2022/04/25 10:34:06;;;;;;;9.50;6.28;;;;;;;5.06;92.62;98971.00;1706119;82;21013;-61
2022/04/25 10:36:44;;;;;;;11.18;6.55;;;;;;;5.00;92.53;98968.66;1709331;82;21046;-61
2022/04/25 10:39:24;;;;;;;12.15;7.30;;;;;;;4.93;92.93;98976.26;1707781;82;21014;-61
2022/04/25 10:44:51;;;;;;;10.70;6.55;;;;;;;4.89;92.86;98972.08;1702040;83;21176;-63
2022/04/25 10:47:20;;;;;;;16.85;7.37;;;;;;;4.90;92.86;98965.99;1686772;82;20971;-62
2022/04/25 10:49:59;;;;;;;11.35;7.90;;;;;;;4.90;92.98;98972.46;1684448;85;21053;-62
2022/04/25 10:55:33;;;;;;;13.25;7.15;;;;;;;4.92;93.17;98985.73;1680125;85;21126;-59
2022/04/25 10:58:08;;;;;;;11.70;8.83;;;;;;;5.00;93.06;98984.17;1668776;85;21265;-60
2022/04/25 11:00:42;;;;;;;11.78;8.30;;;;;;;5.03;93.00;98992.28;1678103;85;21188;-61
2022/04/25 11:03:19;;;;;;;12.23;7.17;;;;;;;5.08;93.02;98991.66;1678507;85;21033;-61
2022/04/25 11:05:50;;;;;;;15.10;9.20;;;;;;;5.11;93.11;98983.33;1701435;83;21029;-62
2022/04/25 11:08:22;;;;;;;11.12;7.25;;;;;;;5.14;92.84;98987.09;1686570;83;21073;-61
2022/04/25 11:10:59;;;;;;;14.73;7.65;;;;;;;5.25;92.74;98989.75;1701031;83;21095;-61
2022/04/25 11:13:38;;;;;;;13.93;7.70;;;;;;;5.39;92.68;98992.66;1673543;84;21656;-61
2022/04/25 11:16:22;;;;;;;11.18;6.62;;;;;;;5.49;92.53;98996.60;1680366;84;21591;-62
2022/04/25 11:19:22;;;;;;;10.20;6.53;;;;;;;5.54;92.13;98993.36;1708324;82;21238;-61
2022/04/25 11:21:55;;;;;;;10.15;7.03;;;;;;;5.52;91.98;98993.89;1708376;81;21289;-63
2022/04/25 11:24:30;;;;;;;13.10;7.00;;;;;;;5.56;91.92;98999.33;1691526;82;21909;-63
2022/04/25 11:27:03;;;;;;;12.28;6.97;;;;;;;5.61;91.82;99003.05;1689325;83;21606;-62
2022/04/25 11:29:30;;;;;;;13.40;7.15;;;;;;;5.61;91.82;99003.05;1682814;84;20999;-62
2022/04/25 11:32:32;;;;;;;11.65;7.17;;;;;;;5.57;91.59;99015.28;1682269;82;21070;-62
2022/04/25 11:35:26;;;;;;;14.65;7.25;;;;;;;5.61;91.73;99014.25;1853471;76;22713;-61
2022/04/25 11:37:57;;;;;;;13.32;6.75;;;;;;;5.48;91.81;99022.54;1841541;77;21470;-62
2022/04/25 11:40:26;;;;;;;9.68;6.22;;;;;;;5.33;91.69;99023.96;1838291;76;21270;-62
2022/04/25 11:42:54;;;;;;;11.75;7.37;;;;;;;5.31;91.97;99023.17;1835510;77;21492;-62
2022/04/25 11:45:22;;;;;;;10.68;7.20;;;;;;;5.27;91.99;99036.68;1842933;77;21023;-62
2022/04/25 11:47:51;;;;;;;9.85;7.17;;;;;;;5.28;92.05;99040.11;1849413;77;20926;-62
2022/04/25 11:50:21;;;;;;;11.75;7.05;;;;;;;5.27;91.99;99043.16;1851802;77;21509;-62
2022/04/25 11:52:56;;;;;;;11.83;7.70;;;;;;;5.33;91.85;99035.61;1846731;77;21064;-61
2022/04/25 11:56:16;;;;;;;9.58;7.33;;;;;;;5.38;91.80;99038.88;1942996;72;22698;-61
2022/04/25 11:58:48;;;;;;;10.05;6.00;;;;;;;5.36;91.80;99045.84;1888381;74;20957;-62
2022/04/25 12:01:38;;;;;;;9.33;6.12;;;;;;;5.32;91.78;99050.73;1892226;74;21027;-62
2022/04/25 12:04:24;;;;;;;9.85;5.90;;;;;;;5.39;91.89;99054.80;1897189;74;21036;-62
2022/04/25 12:07:04;;;;;;;11.45;5.70;;;;;;;5.47;91.88;99055.36;1892863;74;20960;-60
2022/04/25 12:18:30;;;;;;;5.35;4.37;;;;;;;5.66;91.39;99057.24;1913885;74;22326;-61
2022/04/25 12:21:06;;;;;;;7.58;4.35;;;;;;;5.64;91.37;99052.59;1914262;74;21537;-62
2022/04/25 12:23:36;;;;;;;7.87;4.55;;;;;;;5.60;91.40;99054.43;1894597;74;41981;-62
2022/04/25 12:26:06;;;;;;;4.60;3.90;;;;;;;5.51;91.68;99050.45;1876663;74;20902;-62
2022/04/25 12:28:38;;;;;;;8.03;4.28;;;;;;;5.40;91.68;99053.88;1876033;75;21916;-62
2022/04/25 12:31:27;;;;;;;7.62;4.67;;;;;;;5.38;91.79;99047.48;1883237;75;21531;-62
2022/04/25 12:33:54;;;;;;;6.22;4.25;;;;;;;5.37;91.95;99059.17;1810922;79;21048;-62
2022/04/25 12:36:27;;;;;;;8.65;4.58;;;;;;;5.26;92.26;99054.84;1789573;78;21021;-63
2022/04/25 12:39:00;;;;;;;9.78;5.30;;;;;;;5.24;92.15;99069.14;1801877;78;21062;-63
2022/04/25 12:41:36;;;;;;;13.93;4.87;;;;;;;5.22;92.05;99066.22;1809499;78;21876;-62
2022/04/25 12:44:14;;;;;;;10.05;5.85;;;;;;;5.24;92.34;99070.89;1812452;77;20960;-62